sensor_id;sensor_type;location;lat;lon;timestamp;P1;durP1;ratioP1;P2;durP2;ratioP2
11535;SDS011;5824;49.336;8.652;2023-11-18T00:00:22;12.43;;;6.90;;
11535;SDS011;5824;49.336;8.652;2023-11-18T00:02:48;10.13;;;6.23;;
11535;SDS011;5824;49.336;8.652;2023-11-18T00:05:14;9.23;;;6.17;;
11535;SDS011;5824;49.336;8.652;2023-11-18T00:07:40;11.00;;;6.40;;
11535;SDS011;5824;49.336;8.652;2023-11-18T00:10:06;13.90;;;6.70;;
11535;SDS011;5824;49.336;8.652;2023-11-18T00:12:33;10.67;;;5.97;;
11535;SDS011;5824;49.336;8.652;2023-11-18T00:15:04;8.80;;;5.93;;
11535;SDS011;5824;49.336;8.652;2023-11-18T00:17:33;10.03;;;6.27;;
11535;SDS011;5824;49.336;8.652;2023-11-18T00:19:59;10.43;;;5.50;;
11535;SDS011;5824;49.336;8.652;2023-11-18T00:22:24;11.13;;;6.07;;
11535;SDS011;5824;49.336;8.652;2023-11-18T00:24:50;9.63;;;6.13;;
11535;SDS011;5824;49.336;8.652;2023-11-18T00:27:17;8.67;;;6.07;;
11535;SDS011;5824;49.336;8.652;2023-11-18T00:29:42;10.30;;;6.40;;
11535;SDS011;5824;49.336;8.652;2023-11-18T00:32:11;15.20;;;5.83;;
11535;SDS011;5824;49.336;8.652;2023-11-18T00:34:37;11.77;;;6.70;;
11535;SDS011;5824;49.336;8.652;2023-11-18T00:37:02;11.80;;;6.60;;
11535;SDS011;5824;49.336;8.652;2023-11-18T00:39:28;7.57;;;5.50;;
11535;SDS011;5824;49.336;8.652;2023-11-18T00:41:54;9.10;;;6.37;;
11535;SDS011;5824;49.336;8.652;2023-11-18T00:44:20;9.27;;;6.07;;
11535;SDS011;5824;49.336;8.652;2023-11-18T00:46:46;19.90;;;6.03;;
11535;SDS011;5824;49.336;8.652;2023-11-18T00:49:12;9.53;;;6.30;;
11535;SDS011;5824;49.336;8.652;2023-11-18T00:51:38;9.37;;;5.73;;
11535;SDS011;5824;49.336;8.652;2023-11-18T00:54:03;8.60;;;5.57;;
11535;SDS011;5824;49.336;8.652;2023-11-18T00:56:32;8.80;;;5.50;;
11535;SDS011;5824;49.336;8.652;2023-11-18T00:58:58;8.90;;;5.30;;
11535;SDS011;5824;49.336;8.652;2023-11-18T01:01:24;10.30;;;5.83;;
11535;SDS011;5824;49.336;8.652;2023-11-18T01:03:49;8.73;;;5.27;;
11535;SDS011;5824;49.336;8.652;2023-11-18T01:06:15;8.40;;;5.43;;
11535;SDS011;5824;49.336;8.652;2023-11-18T01:08:44;11.67;;;6.17;;
11535;SDS011;5824;49.336;8.652;2023-11-18T01:11:10;10.00;;;5.53;;
11535;SDS011;5824;49.336;8.652;2023-11-18T01:13:35;8.93;;;5.10;;
11535;SDS011;5824;49.336;8.652;2023-11-18T01:16:01;9.20;;;5.73;;
11535;SDS011;5824;49.336;8.652;2023-11-18T01:18:27;15.33;;;7.37;;
11535;SDS011;5824;49.336;8.652;2023-11-18T01:20:53;17.73;;;8.63;;
11535;SDS011;5824;49.336;8.652;2023-11-18T01:23:18;14.83;;;7.03;;
11535;SDS011;5824;49.336;8.652;2023-11-18T01:25:44;9.67;;;5.60;;
11535;SDS011;5824;49.336;8.652;2023-11-18T01:28:10;10.00;;;5.90;;
11535;SDS011;5824;49.336;8.652;2023-11-18T01:30:35;17.90;;;8.73;;
11535;SDS011;5824;49.336;8.652;2023-11-18T01:33:01;17.33;;;7.33;;
11535;SDS011;5824;49.336;8.652;2023-11-18T01:35:27;42.73;;;15.07;;
11535;SDS011;5824;49.336;8.652;2023-11-18T01:37:53;15.73;;;7.97;;
11535;SDS011;5824;49.336;8.652;2023-11-18T01:40:19;19.67;;;8.50;;
11535;SDS011;5824;49.336;8.652;2023-11-18T01:42:45;20.10;;;9.40;;
11535;SDS011;5824;49.336;8.652;2023-11-18T01:45:12;13.80;;;7.50;;
11535;SDS011;5824;49.336;8.652;2023-11-18T01:47:39;11.33;;;6.40;;
11535;SDS011;5824;49.336;8.652;2023-11-18T01:50:05;15.37;;;6.40;;
11535;SDS011;5824;49.336;8.652;2023-11-18T01:52:33;9.37;;;4.93;;
11535;SDS011;5824;49.336;8.652;2023-11-18T01:55:00;10.60;;;5.50;;
11535;SDS011;5824;49.336;8.652;2023-11-18T01:57:26;9.60;;;6.07;;
11535;SDS011;5824;49.336;8.652;2023-11-18T01:59:55;9.70;;;5.53;;
11535;SDS011;5824;49.336;8.652;2023-11-18T02:02:21;9.20;;;5.40;;
11535;SDS011;5824;49.336;8.652;2023-11-18T02:04:47;11.50;;;5.30;;
11535;SDS011;5824;49.336;8.652;2023-11-18T02:07:13;10.77;;;6.03;;
11535;SDS011;5824;49.336;8.652;2023-11-18T02:09:40;12.07;;;6.63;;
11535;SDS011;5824;49.336;8.652;2023-11-18T02:14:46;11.27;;;6.30;;
11535;SDS011;5824;49.336;8.652;2023-11-18T02:17:14;9.40;;;6.10;;
11535;SDS011;5824;49.336;8.652;2023-11-18T02:19:44;9.40;;;6.03;;
11535;SDS011;5824;49.336;8.652;2023-11-18T02:22:10;8.70;;;5.40;;
11535;SDS011;5824;49.336;8.652;2023-11-18T02:24:37;13.00;;;6.10;;
11535;SDS011;5824;49.336;8.652;2023-11-18T02:27:05;13.23;;;6.00;;
11535;SDS011;5824;49.336;8.652;2023-11-18T02:29:38;16.23;;;6.40;;
11535;SDS011;5824;49.336;8.652;2023-11-18T02:32:28;15.97;;;6.57;;
11535;SDS011;5824;49.336;8.652;2023-11-18T02:34:58;11.47;;;6.10;;
11535;SDS011;5824;49.336;8.652;2023-11-18T02:37:31;10.90;;;5.20;;
11535;SDS011;5824;49.336;8.652;2023-11-18T02:40:03;10.90;;;5.60;;
11535;SDS011;5824;49.336;8.652;2023-11-18T02:42:40;7.93;;;5.47;;
11535;SDS011;5824;49.336;8.652;2023-11-18T02:45:08;8.23;;;4.87;;
11535;SDS011;5824;49.336;8.652;2023-11-18T02:47:37;9.93;;;5.07;;
11535;SDS011;5824;49.336;8.652;2023-11-18T02:50:04;7.57;;;5.20;;
11535;SDS011;5824;49.336;8.652;2023-11-18T02:52:35;9.73;;;5.40;;
11535;SDS011;5824;49.336;8.652;2023-11-18T02:55:04;10.17;;;5.33;;
11535;SDS011;5824;49.336;8.652;2023-11-18T02:57:36;9.27;;;5.20;;
11535;SDS011;5824;49.336;8.652;2023-11-18T03:00:02;9.57;;;5.67;;
11535;SDS011;5824;49.336;8.652;2023-11-18T03:02:36;13.30;;;6.37;;
11535;SDS011;5824;49.336;8.652;2023-11-18T03:05:04;7.03;;;4.60;;
11535;SDS011;5824;49.336;8.652;2023-11-18T03:07:31;11.27;;;5.60;;
11535;SDS011;5824;49.336;8.652;2023-11-18T03:09:56;9.93;;;5.50;;
11535;SDS011;5824;49.336;8.652;2023-11-18T03:12:22;9.87;;;5.80;;
11535;SDS011;5824;49.336;8.652;2023-11-18T03:14:48;10.40;;;6.00;;
11535;SDS011;5824;49.336;8.652;2023-11-18T03:17:14;12.57;;;6.77;;
11535;SDS011;5824;49.336;8.652;2023-11-18T03:19:39;9.87;;;6.10;;
11535;SDS011;5824;49.336;8.652;2023-11-18T03:22:06;13.03;;;5.97;;
11535;SDS011;5824;49.336;8.652;2023-11-18T03:24:32;12.70;;;7.13;;
11535;SDS011;5824;49.336;8.652;2023-11-18T03:26:58;11.60;;;6.47;;
11535;SDS011;5824;49.336;8.652;2023-11-18T03:29:23;13.60;;;7.20;;
11535;SDS011;5824;49.336;8.652;2023-11-18T03:31:49;16.80;;;7.40;;
11535;SDS011;5824;49.336;8.652;2023-11-18T03:34:18;12.53;;;6.50;;
11535;SDS011;5824;49.336;8.652;2023-11-18T03:36:45;11.87;;;6.70;;
11535;SDS011;5824;49.336;8.652;2023-11-18T03:39:16;16.40;;;7.33;;
11535;SDS011;5824;49.336;8.652;2023-11-18T03:41:41;13.97;;;7.30;;
11535;SDS011;5824;49.336;8.652;2023-11-18T03:44:09;15.07;;;7.83;;
11535;SDS011;5824;49.336;8.652;2023-11-18T03:46:36;22.30;;;7.90;;
11535;SDS011;5824;49.336;8.652;2023-11-18T03:49:02;13.60;;;7.10;;
11535;SDS011;5824;49.336;8.652;2023-11-18T03:51:28;15.50;;;7.90;;
11535;SDS011;5824;49.336;8.652;2023-11-18T03:53:53;14.80;;;7.03;;
11535;SDS011;5824;49.336;8.652;2023-11-18T03:56:19;26.30;;;7.53;;
11535;SDS011;5824;49.336;8.652;2023-11-18T03:58:45;14.30;;;7.97;;
11535;SDS011;5824;49.336;8.652;2023-11-18T04:01:22;16.83;;;8.40;;
11535;SDS011;5824;49.336;8.652;2023-11-18T04:03:51;17.37;;;9.60;;
11535;SDS011;5824;49.336;8.652;2023-11-18T04:06:17;17.63;;;8.63;;
11535;SDS011;5824;49.336;8.652;2023-11-18T04:08:45;18.60;;;8.70;;
11535;SDS011;5824;49.336;8.652;2023-11-18T04:11:11;17.30;;;8.67;;
11535;SDS011;5824;49.336;8.652;2023-11-18T04:13:38;21.83;;;8.93;;
11535;SDS011;5824;49.336;8.652;2023-11-18T04:16:05;19.37;;;9.00;;
11535;SDS011;5824;49.336;8.652;2023-11-18T04:18:31;17.20;;;8.93;;
11535;SDS011;5824;49.336;8.652;2023-11-18T04:20:56;26.57;;;9.70;;
11535;SDS011;5824;49.336;8.652;2023-11-18T04:23:23;20.77;;;9.40;;
11535;SDS011;5824;49.336;8.652;2023-11-18T04:25:48;20.37;;;10.17;;
11535;SDS011;5824;49.336;8.652;2023-11-18T04:28:14;17.50;;;8.37;;
11535;SDS011;5824;49.336;8.652;2023-11-18T04:30:40;18.23;;;8.80;;
11535;SDS011;5824;49.336;8.652;2023-11-18T04:33:06;23.83;;;9.13;;
11535;SDS011;5824;49.336;8.652;2023-11-18T04:35:31;20.63;;;10.10;;
11535;SDS011;5824;49.336;8.652;2023-11-18T04:37:59;21.00;;;9.90;;
11535;SDS011;5824;49.336;8.652;2023-11-18T04:40:25;19.13;;;9.27;;
11535;SDS011;5824;49.336;8.652;2023-11-18T04:42:50;17.40;;;9.10;;
11535;SDS011;5824;49.336;8.652;2023-11-18T04:45:16;21.10;;;10.13;;
11535;SDS011;5824;49.336;8.652;2023-11-18T04:47:41;22.20;;;10.40;;
11535;SDS011;5824;49.336;8.652;2023-11-18T04:50:08;22.90;;;10.07;;
11535;SDS011;5824;49.336;8.652;2023-11-18T04:52:35;20.93;;;9.80;;
11535;SDS011;5824;49.336;8.652;2023-11-18T04:55:01;22.60;;;10.10;;
11535;SDS011;5824;49.336;8.652;2023-11-18T04:57:28;18.77;;;10.13;;
11535;SDS011;5824;49.336;8.652;2023-11-18T04:59:54;19.40;;;10.37;;
11535;SDS011;5824;49.336;8.652;2023-11-18T05:02:19;24.03;;;11.13;;
11535;SDS011;5824;49.336;8.652;2023-11-18T05:04:45;17.67;;;9.77;;
11535;SDS011;5824;49.336;8.652;2023-11-18T05:07:10;20.37;;;9.13;;
11535;SDS011;5824;49.336;8.652;2023-11-18T05:09:36;22.53;;;10.30;;
11535;SDS011;5824;49.336;8.652;2023-11-18T05:12:02;20.23;;;10.30;;
11535;SDS011;5824;49.336;8.652;2023-11-18T05:14:28;24.50;;;11.03;;
11535;SDS011;5824;49.336;8.652;2023-11-18T05:16:53;19.40;;;10.13;;
11535;SDS011;5824;49.336;8.652;2023-11-18T05:19:19;29.73;;;11.00;;
11535;SDS011;5824;49.336;8.652;2023-11-18T05:21:45;20.80;;;10.73;;
11535;SDS011;5824;49.336;8.652;2023-11-18T05:24:14;23.70;;;10.60;;
11535;SDS011;5824;49.336;8.652;2023-11-18T05:26:40;26.40;;;10.73;;
11535;SDS011;5824;49.336;8.652;2023-11-18T05:29:05;20.90;;;10.70;;
11535;SDS011;5824;49.336;8.652;2023-11-18T05:31:31;17.50;;;9.73;;
11535;SDS011;5824;49.336;8.652;2023-11-18T05:33:58;20.27;;;10.40;;
11535;SDS011;5824;49.336;8.652;2023-11-18T05:36:23;25.53;;;10.07;;
11535;SDS011;5824;49.336;8.652;2023-11-18T05:38:52;26.77;;;11.07;;
11535;SDS011;5824;49.336;8.652;2023-11-18T05:41:19;21.87;;;10.30;;
11535;SDS011;5824;49.336;8.652;2023-11-18T05:43:52;18.50;;;9.63;;
11535;SDS011;5824;49.336;8.652;2023-11-18T05:46:21;22.57;;;10.40;;
11535;SDS011;5824;49.336;8.652;2023-11-18T05:48:50;22.10;;;10.67;;
11535;SDS011;5824;49.336;8.652;2023-11-18T05:51:24;21.20;;;10.33;;
11535;SDS011;5824;49.336;8.652;2023-11-18T05:53:51;22.43;;;10.13;;
11535;SDS011;5824;49.336;8.652;2023-11-18T05:56:17;24.80;;;10.50;;
11535;SDS011;5824;49.336;8.652;2023-11-18T05:58:44;24.50;;;11.10;;
11535;SDS011;5824;49.336;8.652;2023-11-18T06:01:11;15.83;;;9.53;;
11535;SDS011;5824;49.336;8.652;2023-11-18T06:03:37;22.10;;;10.70;;
11535;SDS011;5824;49.336;8.652;2023-11-18T06:06:13;20.93;;;9.87;;
11535;SDS011;5824;49.336;8.652;2023-11-18T06:08:41;20.73;;;10.27;;
11535;SDS011;5824;49.336;8.652;2023-11-18T06:11:08;18.10;;;10.17;;
11535;SDS011;5824;49.336;8.652;2023-11-18T06:13:47;21.10;;;10.00;;
11535;SDS011;5824;49.336;8.652;2023-11-18T06:16:16;23.27;;;10.20;;
11535;SDS011;5824;49.336;8.652;2023-11-18T06:18:45;20.10;;;9.20;;
11535;SDS011;5824;49.336;8.652;2023-11-18T06:21:12;19.87;;;9.80;;
11535;SDS011;5824;49.336;8.652;2023-11-18T06:23:38;20.87;;;9.87;;
11535;SDS011;5824;49.336;8.652;2023-11-18T06:26:04;17.43;;;7.87;;
11535;SDS011;5824;49.336;8.652;2023-11-18T06:28:30;18.90;;;8.97;;
11535;SDS011;5824;49.336;8.652;2023-11-18T06:30:58;16.87;;;9.17;;
11535;SDS011;5824;49.336;8.652;2023-11-18T06:33:24;17.43;;;9.00;;
11535;SDS011;5824;49.336;8.652;2023-11-18T06:35:52;15.40;;;8.30;;
11535;SDS011;5824;49.336;8.652;2023-11-18T06:38:21;18.47;;;8.90;;
11535;SDS011;5824;49.336;8.652;2023-11-18T06:40:47;18.50;;;8.37;;
11535;SDS011;5824;49.336;8.652;2023-11-18T06:43:17;16.33;;;6.93;;
11535;SDS011;5824;49.336;8.652;2023-11-18T06:45:44;16.27;;;7.80;;
11535;SDS011;5824;49.336;8.652;2023-11-18T06:48:09;15.27;;;8.90;;
11535;SDS011;5824;49.336;8.652;2023-11-18T06:50:35;15.00;;;8.43;;
11535;SDS011;5824;49.336;8.652;2023-11-18T06:53:01;18.30;;;8.13;;
11535;SDS011;5824;49.336;8.652;2023-11-18T06:55:27;16.33;;;8.37;;
11535;SDS011;5824;49.336;8.652;2023-11-18T06:57:52;15.60;;;8.07;;
11535;SDS011;5824;49.336;8.652;2023-11-18T07:00:20;15.60;;;8.13;;
11535;SDS011;5824;49.336;8.652;2023-11-18T07:02:47;16.73;;;7.07;;
11535;SDS011;5824;49.336;8.652;2023-11-18T07:05:13;13.87;;;7.67;;
11535;SDS011;5824;49.336;8.652;2023-11-18T07:07:40;13.73;;;7.10;;
11535;SDS011;5824;49.336;8.652;2023-11-18T07:10:08;40.73;;;7.77;;
11535;SDS011;5824;49.336;8.652;2023-11-18T07:12:37;12.60;;;6.30;;
11535;SDS011;5824;49.336;8.652;2023-11-18T07:15:03;14.27;;;7.40;;
11535;SDS011;5824;49.336;8.652;2023-11-18T07:17:30;17.97;;;8.17;;
11535;SDS011;5824;49.336;8.652;2023-11-18T07:19:55;13.23;;;7.20;;
11535;SDS011;5824;49.336;8.652;2023-11-18T07:22:21;16.20;;;7.60;;
11535;SDS011;5824;49.336;8.652;2023-11-18T07:24:46;14.80;;;7.17;;
11535;SDS011;5824;49.336;8.652;2023-11-18T07:27:12;16.13;;;7.13;;
11535;SDS011;5824;49.336;8.652;2023-11-18T07:29:38;14.37;;;7.03;;
11535;SDS011;5824;49.336;8.652;2023-11-18T07:32:03;14.77;;;7.50;;
11535;SDS011;5824;49.336;8.652;2023-11-18T07:34:31;13.20;;;6.70;;
11535;SDS011;5824;49.336;8.652;2023-11-18T07:36:58;14.53;;;7.77;;
11535;SDS011;5824;49.336;8.652;2023-11-18T07:39:23;13.87;;;7.93;;
11535;SDS011;5824;49.336;8.652;2023-11-18T07:42:01;16.70;;;7.10;;
11535;SDS011;5824;49.336;8.652;2023-11-18T07:44:26;12.50;;;7.30;;
11535;SDS011;5824;49.336;8.652;2023-11-18T07:46:52;15.57;;;7.87;;
11535;SDS011;5824;49.336;8.652;2023-11-18T07:49:18;16.40;;;7.63;;
11535;SDS011;5824;49.336;8.652;2023-11-18T07:51:44;14.87;;;8.33;;
11535;SDS011;5824;49.336;8.652;2023-11-18T07:54:09;15.73;;;9.10;;
11535;SDS011;5824;49.336;8.652;2023-11-18T07:56:35;18.13;;;8.50;;
11535;SDS011;5824;49.336;8.652;2023-11-18T07:59:01;19.53;;;9.03;;
11535;SDS011;5824;49.336;8.652;2023-11-18T08:01:28;15.97;;;8.17;;
11535;SDS011;5824;49.336;8.652;2023-11-18T08:03:54;17.90;;;8.30;;
11535;SDS011;5824;49.336;8.652;2023-11-18T08:06:19;21.77;;;9.07;;
11535;SDS011;5824;49.336;8.652;2023-11-18T08:08:45;18.87;;;8.07;;
11535;SDS011;5824;49.336;8.652;2023-11-18T08:11:12;20.33;;;9.73;;
11535;SDS011;5824;49.336;8.652;2023-11-18T08:13:38;17.13;;;8.30;;
11535;SDS011;5824;49.336;8.652;2023-11-18T08:16:05;20.07;;;8.63;;
11535;SDS011;5824;49.336;8.652;2023-11-18T08:18:33;18.17;;;9.57;;
11535;SDS011;5824;49.336;8.652;2023-11-18T08:21:00;21.60;;;9.30;;
11535;SDS011;5824;49.336;8.652;2023-11-18T08:23:26;15.37;;;8.47;;
11535;SDS011;5824;49.336;8.652;2023-11-18T08:25:56;14.50;;;8.50;;
11535;SDS011;5824;49.336;8.652;2023-11-18T08:28:22;22.93;;;9.10;;
11535;SDS011;5824;49.336;8.652;2023-11-18T08:30:47;18.53;;;8.27;;
11535;SDS011;5824;49.336;8.652;2023-11-18T08:33:14;21.47;;;9.43;;
11535;SDS011;5824;49.336;8.652;2023-11-18T08:35:39;20.30;;;9.90;;
11535;SDS011;5824;49.336;8.652;2023-11-18T08:38:07;18.23;;;8.00;;
11535;SDS011;5824;49.336;8.652;2023-11-18T08:40:33;22.70;;;9.60;;
11535;SDS011;5824;49.336;8.652;2023-11-18T08:42:59;15.23;;;8.03;;
11535;SDS011;5824;49.336;8.652;2023-11-18T08:45:26;21.30;;;9.80;;
11535;SDS011;5824;49.336;8.652;2023-11-18T08:47:54;17.30;;;9.93;;
11535;SDS011;5824;49.336;8.652;2023-11-18T08:50:27;22.30;;;9.87;;
11535;SDS011;5824;49.336;8.652;2023-11-18T08:52:54;20.43;;;9.50;;
11535;SDS011;5824;49.336;8.652;2023-11-18T08:55:23;20.03;;;9.33;;
11535;SDS011;5824;49.336;8.652;2023-11-18T08:58:04;16.30;;;8.73;;
11535;SDS011;5824;49.336;8.652;2023-11-18T09:00:40;18.40;;;10.40;;
11535;SDS011;5824;49.336;8.652;2023-11-18T09:03:19;17.13;;;9.67;;
11535;SDS011;5824;49.336;8.652;2023-11-18T09:05:59;13.33;;;7.80;;
11535;SDS011;5824;49.336;8.652;2023-11-18T09:10:59;22.60;;;9.63;;
11535;SDS011;5824;49.336;8.652;2023-11-18T09:13:30;16.57;;;8.47;;
11535;SDS011;5824;49.336;8.652;2023-11-18T09:15:57;14.87;;;8.20;;
11535;SDS011;5824;49.336;8.652;2023-11-18T09:18:25;13.50;;;7.60;;
11535;SDS011;5824;49.336;8.652;2023-11-18T09:20:52;18.53;;;9.43;;
11535;SDS011;5824;49.336;8.652;2023-11-18T09:23:20;16.63;;;8.47;;
11535;SDS011;5824;49.336;8.652;2023-11-18T09:25:48;15.73;;;7.27;;
11535;SDS011;5824;49.336;8.652;2023-11-18T09:28:14;20.00;;;6.87;;
11535;SDS011;5824;49.336;8.652;2023-11-18T09:30:45;10.60;;;6.10;;
11535;SDS011;5824;49.336;8.652;2023-11-18T09:33:22;9.17;;;5.73;;
11535;SDS011;5824;49.336;8.652;2023-11-18T09:36:00;9.70;;;6.53;;
11535;SDS011;5824;49.336;8.652;2023-11-18T09:38:33;13.37;;;5.97;;
11535;SDS011;5824;49.336;8.652;2023-11-18T09:41:05;17.13;;;6.07;;
11535;SDS011;5824;49.336;8.652;2023-11-18T09:43:35;8.53;;;5.27;;
11535;SDS011;5824;49.336;8.652;2023-11-18T09:46:07;9.67;;;5.50;;
11535;SDS011;5824;49.336;8.652;2023-11-18T09:48:47;9.63;;;6.50;;
11535;SDS011;5824;49.336;8.652;2023-11-18T09:51:28;9.77;;;6.00;;
11535;SDS011;5824;49.336;8.652;2023-11-18T09:54:00;9.47;;;6.60;;
11535;SDS011;5824;49.336;8.652;2023-11-18T09:56:41;9.50;;;5.90;;
11535;SDS011;5824;49.336;8.652;2023-11-18T10:02:49;11.93;;;5.37;;
11535;SDS011;5824;49.336;8.652;2023-11-18T10:05:15;9.30;;;5.77;;
11535;SDS011;5824;49.336;8.652;2023-11-18T10:07:46;11.23;;;5.60;;
11535;SDS011;5824;49.336;8.652;2023-11-18T10:10:12;7.70;;;5.50;;
11535;SDS011;5824;49.336;8.652;2023-11-18T10:12:41;9.30;;;5.53;;
11535;SDS011;5824;49.336;8.652;2023-11-18T10:15:11;9.20;;;5.17;;
11535;SDS011;5824;49.336;8.652;2023-11-18T10:17:42;6.50;;;4.73;;
11535;SDS011;5824;49.336;8.652;2023-11-18T10:23:15;9.60;;;5.23;;
11535;SDS011;5824;49.336;8.652;2023-11-18T10:25:49;7.50;;;4.30;;
11535;SDS011;5824;49.336;8.652;2023-11-18T10:28:27;6.47;;;4.00;;
11535;SDS011;5824;49.336;8.652;2023-11-18T10:31:00;6.60;;;4.07;;
11535;SDS011;5824;49.336;8.652;2023-11-18T10:33:37;8.47;;;3.60;;
11535;SDS011;5824;49.336;8.652;2023-11-18T10:36:06;6.13;;;3.07;;
11535;SDS011;5824;49.336;8.652;2023-11-18T10:38:49;3.93;;;3.00;;
11535;SDS011;5824;49.336;8.652;2023-11-18T10:41:17;3.87;;;2.93;;
11535;SDS011;5824;49.336;8.652;2023-11-18T10:43:43;5.47;;;2.70;;
11535;SDS011;5824;49.336;8.652;2023-11-18T10:46:11;5.80;;;2.70;;
11535;SDS011;5824;49.336;8.652;2023-11-18T10:48:45;3.37;;;2.70;;
11535;SDS011;5824;49.336;8.652;2023-11-18T10:51:15;5.43;;;2.73;;
11535;SDS011;5824;49.336;8.652;2023-11-18T10:53:44;5.03;;;2.70;;
11535;SDS011;5824;49.336;8.652;2023-11-18T10:56:21;5.73;;;3.30;;
11535;SDS011;5824;49.336;8.652;2023-11-18T11:01:36;3.63;;;2.30;;
11535;SDS011;5824;49.336;8.652;2023-11-18T11:04:07;3.50;;;2.20;;
11535;SDS011;5824;49.336;8.652;2023-11-18T11:06:35;4.87;;;2.53;;
11535;SDS011;5824;49.336;8.652;2023-11-18T11:09:06;5.17;;;2.00;;
11535;SDS011;5824;49.336;8.652;2023-11-18T11:11:39;4.57;;;2.40;;
11535;SDS011;5824;49.336;8.652;2023-11-18T11:14:11;5.23;;;2.40;;
11535;SDS011;5824;49.336;8.652;2023-11-18T11:16:42;4.30;;;3.90;;
11535;SDS011;5824;49.336;8.652;2023-11-18T11:19:26;5.63;;;2.70;;
11535;SDS011;5824;49.336;8.652;2023-11-18T11:22:12;3.20;;;2.00;;
11535;SDS011;5824;49.336;8.652;2023-11-18T11:24:54;8.87;;;5.27;;
11535;SDS011;5824;49.336;8.652;2023-11-18T11:27:46;4.80;;;3.17;;
11535;SDS011;5824;49.336;8.652;2023-11-18T11:30:28;7.53;;;2.43;;
11535;SDS011;5824;49.336;8.652;2023-11-18T11:33:07;4.80;;;2.30;;
11535;SDS011;5824;49.336;8.652;2023-11-18T11:35:37;2.73;;;1.77;;
11535;SDS011;5824;49.336;8.652;2023-11-18T11:38:09;2.93;;;2.30;;
11535;SDS011;5824;49.336;8.652;2023-11-18T11:40:38;4.50;;;2.00;;
11535;SDS011;5824;49.336;8.652;2023-11-18T11:43:07;4.23;;;2.40;;
11535;SDS011;5824;49.336;8.652;2023-11-18T11:45:35;4.60;;;2.30;;
11535;SDS011;5824;49.336;8.652;2023-11-18T11:48:02;3.00;;;1.80;;
11535;SDS011;5824;49.336;8.652;2023-11-18T11:50:57;2.47;;;2.00;;
11535;SDS011;5824;49.336;8.652;2023-11-18T11:53:47;4.70;;;2.57;;
11535;SDS011;5824;49.336;8.652;2023-11-18T11:56:17;2.73;;;1.97;;
11535;SDS011;5824;49.336;8.652;2023-11-18T11:58:46;2.40;;;1.70;;
11535;SDS011;5824;49.336;8.652;2023-11-18T12:03:59;3.30;;;2.00;;
11535;SDS011;5824;49.336;8.652;2023-11-18T12:06:31;5.33;;;2.40;;
11535;SDS011;5824;49.336;8.652;2023-11-18T12:09:00;5.47;;;2.03;;
11535;SDS011;5824;49.336;8.652;2023-11-18T12:11:32;4.13;;;2.17;;
11535;SDS011;5824;49.336;8.652;2023-11-18T12:14:05;2.80;;;1.50;;
11535;SDS011;5824;49.336;8.652;2023-11-18T12:17:02;4.77;;;1.87;;
11535;SDS011;5824;49.336;8.652;2023-11-18T12:19:45;2.27;;;1.40;;
11535;SDS011;5824;49.336;8.652;2023-11-18T12:22:18;3.33;;;1.93;;
11535;SDS011;5824;49.336;8.652;2023-11-18T12:25:28;2.93;;;1.90;;
11535;SDS011;5824;49.336;8.652;2023-11-18T12:35:23;4.20;;;1.83;;
11535;SDS011;5824;49.336;8.652;2023-11-18T12:40:55;1.80;;;1.53;;
11535;SDS011;5824;49.336;8.652;2023-11-18T12:43:28;2.97;;;2.00;;
11535;SDS011;5824;49.336;8.652;2023-11-18T12:49:14;1.93;;;1.50;;
11535;SDS011;5824;49.336;8.652;2023-11-18T12:51:48;2.90;;;1.70;;
11535;SDS011;5824;49.336;8.652;2023-11-18T12:54:18;2.30;;;1.40;;
11535;SDS011;5824;49.336;8.652;2023-11-18T12:56:44;4.30;;;1.50;;
11535;SDS011;5824;49.336;8.652;2023-11-18T12:59:16;4.27;;;1.60;;
11535;SDS011;5824;49.336;8.652;2023-11-18T13:01:49;2.33;;;1.50;;
11535;SDS011;5824;49.336;8.652;2023-11-18T13:04:21;12.00;;;1.90;;
11535;SDS011;5824;49.336;8.652;2023-11-18T13:06:49;2.20;;;1.50;;
11535;SDS011;5824;49.336;8.652;2023-11-18T13:09:16;4.70;;;2.27;;
11535;SDS011;5824;49.336;8.652;2023-11-18T13:11:55;4.80;;;2.00;;
11535;SDS011;5824;49.336;8.652;2023-11-18T13:14:22;4.53;;;2.00;;
11535;SDS011;5824;49.336;8.652;2023-11-18T13:16:50;10.40;;;3.30;;
11535;SDS011;5824;49.336;8.652;2023-11-18T13:19:24;4.53;;;1.60;;
11535;SDS011;5824;49.336;8.652;2023-11-18T13:21:56;2.83;;;2.17;;
11535;SDS011;5824;49.336;8.652;2023-11-18T13:24:28;3.13;;;1.90;;
11535;SDS011;5824;49.336;8.652;2023-11-18T13:26:55;6.00;;;2.37;;
11535;SDS011;5824;49.336;8.652;2023-11-18T13:29:22;3.60;;;2.13;;
11535;SDS011;5824;49.336;8.652;2023-11-18T13:31:49;4.13;;;1.97;;
11535;SDS011;5824;49.336;8.652;2023-11-18T13:34:16;2.13;;;1.80;;
11535;SDS011;5824;49.336;8.652;2023-11-18T13:36:42;3.50;;;2.10;;
11535;SDS011;5824;49.336;8.652;2023-11-18T13:39:09;3.23;;;2.10;;
11535;SDS011;5824;49.336;8.652;2023-11-18T13:41:44;7.17;;;1.47;;
11535;SDS011;5824;49.336;8.652;2023-11-18T13:44:13;1.90;;;1.70;;
11535;SDS011;5824;49.336;8.652;2023-11-18T13:47:00;2.67;;;1.60;;
11535;SDS011;5824;49.336;8.652;2023-11-18T13:49:30;3.60;;;1.70;;
11535;SDS011;5824;49.336;8.652;2023-11-18T13:51:59;3.47;;;1.97;;
11535;SDS011;5824;49.336;8.652;2023-11-18T13:54:29;3.10;;;2.23;;
11535;SDS011;5824;49.336;8.652;2023-11-18T13:56:55;4.20;;;1.70;;
11535;SDS011;5824;49.336;8.652;2023-11-18T13:59:24;3.37;;;2.00;;
11535;SDS011;5824;49.336;8.652;2023-11-18T14:01:51;2.60;;;1.87;;
11535;SDS011;5824;49.336;8.652;2023-11-18T14:04:19;3.43;;;2.10;;
11535;SDS011;5824;49.336;8.652;2023-11-18T14:06:52;4.33;;;1.77;;
11535;SDS011;5824;49.336;8.652;2023-11-18T14:09:18;5.33;;;2.10;;
11535;SDS011;5824;49.336;8.652;2023-11-18T14:11:46;4.40;;;2.07;;
11535;SDS011;5824;49.336;8.652;2023-11-18T14:14:13;6.23;;;2.33;;
11535;SDS011;5824;49.336;8.652;2023-11-18T14:16:39;4.77;;;2.13;;
11535;SDS011;5824;49.336;8.652;2023-11-18T14:19:05;3.40;;;2.00;;
11535;SDS011;5824;49.336;8.652;2023-11-18T14:21:31;2.00;;;1.50;;
11535;SDS011;5824;49.336;8.652;2023-11-18T14:23:57;3.50;;;2.10;;
11535;SDS011;5824;49.336;8.652;2023-11-18T14:26:27;2.40;;;1.93;;
11535;SDS011;5824;49.336;8.652;2023-11-18T14:28:52;5.50;;;2.63;;
11535;SDS011;5824;49.336;8.652;2023-11-18T14:31:18;2.40;;;2.20;;
11535;SDS011;5824;49.336;8.652;2023-11-18T14:33:43;9.13;;;2.50;;
11535;SDS011;5824;49.336;8.652;2023-11-18T14:36:09;2.83;;;2.40;;
11535;SDS011;5824;49.336;8.652;2023-11-18T14:38:36;9.60;;;2.63;;
11535;SDS011;5824;49.336;8.652;2023-11-18T14:41:02;4.20;;;2.33;;
11535;SDS011;5824;49.336;8.652;2023-11-18T14:43:29;4.10;;;2.60;;
11535;SDS011;5824;49.336;8.652;2023-11-18T14:45:55;6.20;;;2.93;;
11535;SDS011;5824;49.336;8.652;2023-11-18T14:48:20;6.07;;;2.57;;
11535;SDS011;5824;49.336;8.652;2023-11-18T14:50:46;4.70;;;2.67;;
11535;SDS011;5824;49.336;8.652;2023-11-18T14:53:12;4.53;;;2.20;;
11535;SDS011;5824;49.336;8.652;2023-11-18T14:55:38;3.77;;;2.40;;
11535;SDS011;5824;49.336;8.652;2023-11-18T14:58:04;2.43;;;2.00;;
11535;SDS011;5824;49.336;8.652;2023-11-18T15:00:30;5.87;;;1.90;;
11535;SDS011;5824;49.336;8.652;2023-11-18T15:02:59;5.93;;;2.30;;
11535;SDS011;5824;49.336;8.652;2023-11-18T15:05:25;3.90;;;2.20;;
11535;SDS011;5824;49.336;8.652;2023-11-18T15:07:53;3.17;;;2.20;;
11535;SDS011;5824;49.336;8.652;2023-11-18T15:10:23;2.40;;;2.20;;
11535;SDS011;5824;49.336;8.652;2023-11-18T15:12:51;3.20;;;2.10;;
11535;SDS011;5824;49.336;8.652;2023-11-18T15:15:22;3.80;;;2.47;;
11535;SDS011;5824;49.336;8.652;2023-11-18T15:17:56;5.00;;;2.70;;
11535;SDS011;5824;49.336;8.652;2023-11-18T15:20:23;5.03;;;2.33;;
11535;SDS011;5824;49.336;8.652;2023-11-18T15:22:49;3.90;;;2.43;;
11535;SDS011;5824;49.336;8.652;2023-11-18T15:25:15;6.97;;;2.90;;
11535;SDS011;5824;49.336;8.652;2023-11-18T15:27:45;2.73;;;2.23;;
11535;SDS011;5824;49.336;8.652;2023-11-18T15:30:12;4.10;;;2.37;;
11535;SDS011;5824;49.336;8.652;2023-11-18T15:32:39;4.53;;;2.90;;